Time;durP1;ratioP1;P1;durP2;ratioP2;P2;SDS_P1;SDS_P2;PMS_P1;PMS_P2;Temp;Humidity;BMP_temperature;BMP_pressure;BME280_temperature;BME280_humidity;BME280_pressure;Samples;Min_cycle;Max_cycle;Signal;HPM_P1;HPM_P2
2022/05/30 00:02:10;;;;;;;4.43;1.70;;;;;;;;;;5015843;28;92541;-72
2022/05/30 00:04:37;;;;;;;8.10;1.90;;;;;;;;;;5013249;28;94937;-72
2022/05/30 00:07:04;;;;;;;7.00;2.13;;;;;;;;;;5014756;28;93434;-71
2022/05/30 00:09:31;;;;;;;9.32;1.80;;;;;;;;;;5015138;28;92961;-72
2022/05/30 00:11:57;;;;;;;4.82;1.65;;;;;;;;;;5014685;28;93906;-72
2022/05/30 00:14:24;;;;;;;4.22;2.33;;;;;;;;;;5015183;28;94249;-72
2022/05/30 00:16:50;;;;;;;4.22;1.75;;;;;;;;;;5016073;28;92434;-72
2022/05/30 00:19:16;;;;;;;8.35;1.63;;;;;;;;;;5017284;28;93857;-71
2022/05/30 00:21:44;;;;;;;5.68;1.80;;;;;;;;;;5015772;28;91745;-71
2022/05/30 00:24:10;;;;;;;2.58;1.50;;;;;;;;;;5014441;28;93883;-71
2022/05/30 00:26:37;;;;;;;9.20;2.45;;;;;;;;;;5015218;28;93730;-71
2022/05/30 00:29:04;;;;;;;5.20;1.77;;;;;;;;;;5013650;28;94945;-71
2022/05/30 00:31:31;;;;;;;6.68;1.98;;;;;;;;;;5014160;28;95159;-71
2022/05/30 00:33:58;;;;;;;8.02;1.65;;;;;;;;;;5006277;28;92939;-72
2022/05/30 00:36:24;;;;;;;4.57;1.50;;;;;;;;;;5013963;28;93555;-71
2022/05/30 00:38:51;;;;;;;3.72;1.73;;;;;;;;;;5013996;28;93216;-71
2022/05/30 00:41:17;;;;;;;6.32;2.10;;;;;;;;;;5018034;28;94256;-71
2022/05/30 00:43:46;;;;;;;3.33;1.88;;;;;;;;;;5014858;28;93926;-71
2022/05/30 00:46:15;;;;;;;7.32;2.13;;;;;;;;;;5014946;28;92314;-71
2022/05/30 00:48:45;;;;;;;5.25;1.42;;;;;;;;;;5014903;28;92493;-71
2022/05/30 00:51:32;;;;;;;6.55;2.15;;;;;;;;;;5013040;28;93167;-72
2022/05/30 00:54:00;;;;;;;6.82;2.38;;;;;;;;;;5011283;28;98262;-72
2022/05/30 00:56:37;;;;;;;4.47;2.15;;;;;;;;;;5013351;28;92547;-72
2022/05/30 00:59:04;;;;;;;5.65;2.40;;;;;;;;;;5013176;28;93153;-72
2022/05/30 01:01:31;;;;;;;4.82;2.38;;;;;;;;;;5012319;28;95778;-71
2022/05/30 01:06:46;;;;;;;5.80;2.42;;;;;;;;;;5013314;28;93181;-71
2022/05/30 01:09:15;;;;;;;11.25;2.63;;;;;;;;;;5014285;28;92709;-72
2022/05/30 01:11:59;;;;;;;4.28;2.28;;;;;;;;;;5013647;28;94898;-71
2022/05/30 01:14:29;;;;;;;8.68;2.70;;;;;;;;;;5012091;28;95801;-71
2022/05/30 01:16:57;;;;;;;7.20;2.50;;;;;;;;;;5013308;28;92588;-71
2022/05/30 01:19:32;;;;;;;6.40;2.90;;;;;;;;;;5011074;28;95003;-71
2022/05/30 01:22:10;;;;;;;11.40;2.85;;;;;;;;;;5012304;28;96356;-71
2022/05/30 01:24:43;;;;;;;5.25;2.42;;;;;;;;;;5008249;28;92545;-71
2022/05/30 01:27:32;;;;;;;10.27;2.33;;;;;;;;;;5012702;28;92637;-71
2022/05/30 01:30:00;;;;;;;3.67;1.90;;;;;;;;;;5012782;28;92528;-71
2022/05/30 01:32:27;;;;;;;3.10;1.80;;;;;;;;;;5012572;28;92899;-71
2022/05/30 01:34:54;;;;;;;6.28;2.38;;;;;;;;;;5013697;28;93173;-71
2022/05/30 01:37:28;;;;;;;8.25;2.17;;;;;;;;;;5014309;28;91813;-72
2022/05/30 01:39:55;;;;;;;3.53;1.75;;;;;;;;;;5012480;28;93848;-71
2022/05/30 01:42:21;;;;;;;6.80;2.15;;;;;;;;;;5014124;28;93295;-71
2022/05/30 01:44:48;;;;;;;3.00;1.42;;;;;;;;;;5011019;28;94979;-71
2022/05/30 01:47:15;;;;;;;6.75;2.42;;;;;;;;;;5015422;28;95428;-71
2022/05/30 01:49:43;;;;;;;7.55;1.90;;;;;;;;;;5011599;28;93267;-71
2022/05/30 01:52:10;;;;;;;2.38;1.90;;;;;;;;;;5012641;28;94940;-71
2022/05/30 01:54:37;;;;;;;7.68;2.10;;;;;;;;;;5012222;28;95045;-71
2022/05/30 01:57:21;;;;;;;4.47;1.88;;;;;;;;;;5007030;28;92844;-71
2022/05/30 02:00:11;;;;;;;5.30;2.53;;;;;;;;;;5005734;28;93373;-71
2022/05/30 02:02:43;;;;;;;;;;;;;;;;;;5012096;28;92744;-71
2022/05/30 02:05:11;;;;;;;5.00;2.00;;;;;;;;;;5012691;28;117983;-71
2022/05/30 02:07:38;;;;;;;6.38;2.08;;;;;;;;;;5012146;28;94947;-71
2022/05/30 02:10:05;;;;;;;15.05;2.80;;;;;;;;;;5012833;28;95582;-71
2022/05/30 02:12:35;;;;;;;3.63;1.90;;;;;;;;;;5011971;28;96427;-71
2022/05/30 02:15:09;;;;;;;8.45;2.35;;;;;;;;;;5012085;28;95109;-72
2022/05/30 02:17:35;;;;;;;6.32;2.45;;;;;;;;;;5013273;28;92522;-71
2022/05/30 02:20:03;;;;;;;12.32;2.60;;;;;;;;;;5012315;28;94915;-71
2022/05/30 02:22:30;;;;;;;5.32;2.30;;;;;;;;;;5003554;28;95682;-71
2022/05/30 02:24:57;;;;;;;4.18;2.28;;;;;;;;;;5011573;28;92994;-71
2022/05/30 02:27:23;;;;;;;9.02;2.83;;;;;;;;;;5013728;28;91774;-71
2022/05/30 02:29:52;;;;;;;5.13;3.20;;;;;;;;;;5012035;28;95245;-72
2022/05/30 02:32:20;;;;;;;5.88;2.55;;;;;;;;;;5013412;28;94161;-71
2022/05/30 02:37:32;;;;;;;8.02;2.55;;;;;;;;;;5009760;28;92526;-71
2022/05/30 02:40:20;;;;;;;14.00;3.20;;;;;;;;;;5011789;28;94158;-71
2022/05/30 02:43:13;;;;;;;3.35;2.72;;;;;;;;;;5012881;28;94142;-71
2022/05/30 02:45:41;;;;;;;4.63;2.42;;;;;;;;;;5010362;28;92591;-71
2022/05/30 02:48:08;;;;;;;6.82;3.17;;;;;;;;;;5012058;28;95868;-71
2022/05/30 02:50:34;;;;;;;3.67;2.40;;;;;;;;;;5011874;28;92577;-71
2022/05/30 02:53:02;;;;;;;9.35;2.88;;;;;;;;;;5011476;28;91881;-72
2022/05/30 02:55:57;;;;;;;7.35;2.58;;;;;;;;;;5015407;28;92904;-72
2022/05/30 02:58:25;;;;;;;6.28;2.70;;;;;;;;;;5011471;28;92774;-71
2022/05/30 03:00:52;;;;;;;8.77;2.95;;;;;;;;;;5009456;28;95487;-71
2022/05/30 03:03:18;;;;;;;7.28;2.80;;;;;;;;;;5011368;28;94052;-71
2022/05/30 03:05:45;;;;;;;4.97;2.92;;;;;;;;;;5011511;28;92564;-71
2022/05/30 03:08:11;;;;;;;3.55;2.45;;;;;;;;;;5011343;28;94021;-71
2022/05/30 03:11:07;;;;;;;4.07;2.95;;;;;;;;;;5011933;28;92974;-71
2022/05/30 03:13:33;;;;;;;8.63;3.25;;;;;;;;;;5011624;28;92606;-71
2022/05/30 03:16:00;;;;;;;6.95;2.35;;;;;;;;;;5014889;28;94025;-71
2022/05/30 03:18:28;;;;;;;7.82;2.53;;;;;;;;;;5018480;28;93689;-71
2022/05/30 03:20:55;;;;;;;4.97;2.92;;;;;;;;;;5014357;28;94763;-71
2022/05/30 03:23:21;;;;;;;6.00;2.97;;;;;;;;;;5014983;28;94107;-71
2022/05/30 03:26:01;;;;;;;8.43;2.63;;;;;;;;;;5014143;28;94977;-71
2022/05/30 03:28:31;;;;;;;4.00;2.17;;;;;;;;;;5013818;28;97684;-71
2022/05/30 03:30:59;;;;;;;4.78;2.50;;;;;;;;;;5014858;28;92578;-71
2022/05/30 03:33:29;;;;;;;7.53;3.20;;;;;;;;;;5014414;28;92661;-71
2022/05/30 03:35:56;;;;;;;8.35;3.90;;;;;;;;;;5014169;28;95278;-71
2022/05/30 03:38:51;;;;;;;4.80;2.95;;;;;;;;;;5017972;28;93995;-71
2022/05/30 03:41:40;;;;;;;6.72;2.67;;;;;;;;;;5019606;28;93754;-71
2022/05/30 03:44:10;;;;;;;4.78;2.58;;;;;;;;;;5015197;28;94423;-71
2022/05/30 03:46:36;;;;;;;6.63;2.95;;;;;;;;;;5015683;28;92588;-70
2022/05/30 03:49:03;;;;;;;5.18;2.67;;;;;;;;;;5014072;28;92868;-71
2022/05/30 03:51:30;;;;;;;8.45;3.00;;;;;;;;;;5012465;28;97702;-71
2022/05/30 03:53:57;;;;;;;3.72;2.70;;;;;;;;;;5014648;28;92958;-71
2022/05/30 03:56:24;;;;;;;2.78;2.53;;;;;;;;;;5015169;28;92937;-71
2022/05/30 03:58:50;;;;;;;7.43;2.70;;;;;;;;;;5014711;28;94314;-71
2022/05/30 04:01:17;;;;;;;9.80;3.60;;;;;;;;;;5017643;28;92594;-72
2022/05/30 04:03:44;;;;;;;6.60;2.70;;;;;;;;;;5013416;28;95254;-71
2022/05/30 04:06:11;;;;;;;7.28;2.60;;;;;;;;;;5015805;28;92534;-71
2022/05/30 04:08:38;;;;;;;13.05;2.90;;;;;;;;;;5014694;28;94704;-73
2022/05/30 04:11:07;;;;;;;9.70;3.03;;;;;;;;;;5014692;28;93091;-72
2022/05/30 04:14:02;;;;;;;14.90;3.40;;;;;;;;;;4967616;28;92589;-72
2022/05/30 04:16:39;;;;;;;8.20;3.25;;;;;;;;;;5012683;28;96157;-72
2022/05/30 04:19:09;;;;;;;5.28;2.83;;;;;;;;;;5015047;28;93348;-71
2022/05/30 04:21:36;;;;;;;8.73;2.90;;;;;;;;;;5013893;28;92605;-72
2022/05/30 04:24:04;;;;;;;7.95;3.17;;;;;;;;;;5016198;28;95005;-71
2022/05/30 04:26:39;;;;;;;9.05;3.05;;;;;;;;;;5011976;28;93573;-72
2022/05/30 04:29:07;;;;;;;6.32;2.60;;;;;;;;;;5014636;28;93820;-72
2022/05/30 04:32:03;;;;;;;9.95;2.78;;;;;;;;;;5008492;28;95118;-72
2022/05/30 04:34:32;;;;;;;6.50;3.08;;;;;;;;;;5010844;28;93888;-72
2022/05/30 04:36:58;;;;;;;5.15;2.50;;;;;;;;;;5007391;28;93516;-72
2022/05/30 04:39:26;;;;;;;6.90;2.90;;;;;;;;;;5012063;28;95769;-72
2022/05/30 04:41:55;;;;;;;8.70;3.05;;;;;;;;;;5013773;28;94848;-73
2022/05/30 04:44:31;;;;;;;8.50;2.72;;;;;;;;;;5014041;28;95054;-72
2022/05/30 04:47:00;;;;;;;6.70;3.05;;;;;;;;;;5018057;28;93686;-72
2022/05/30 04:49:27;;;;;;;7.00;3.33;;;;;;;;;;5013571;28;95340;-72
2022/05/30 04:51:53;;;;;;;14.40;3.95;;;;;;;;;;5014315;28;93143;-73
2022/05/30 04:54:20;;;;;;;11.02;3.10;;;;;;;;;;5015399;28;92694;-72
2022/05/30 04:57:09;;;;;;;5.88;3.47;;;;;;;;;;5008398;28;93859;-73
2022/05/30 04:59:45;;;;;;;9.13;3.90;;;;;;;;;;5014643;28;95001;-72
2022/05/30 05:02:13;;;;;;;11.65;3.17;;;;;;;;;;5007501;28;93126;-72
2022/05/30 05:04:46;;;;;;;5.13;3.30;;;;;;;;;;5003817;28;94837;-70
2022/05/30 05:07:12;;;;;;;6.18;3.30;;;;;;;;;;5009685;28;98124;-71
2022/05/30 05:09:56;;;;;;;7.90;3.05;;;;;;;;;;5006868;28;94285;-71
2022/05/30 05:12:41;;;;;;;14.45;3.47;;;;;;;;;;4993889;28;93034;-71
2022/05/30 05:15:33;;;;;;;12.75;3.58;;;;;;;;;;4998147;28;92787;-71
2022/05/30 05:18:06;;;;;;;8.57;2.92;;;;;;;;;;5017889;28;94491;-71
2022/05/30 05:20:42;;;;;;;6.00;3.50;;;;;;;;;;4999411;28;95584;-71
2022/05/30 05:23:08;;;;;;;6.88;2.90;;;;;;;;;;4993350;28;93919;-70
2022/05/30 05:25:50;;;;;;;7.70;2.90;;;;;;;;;;4998797;28;93187;-70
2022/05/30 05:28:42;;;;;;;10.98;3.63;;;;;;;;;;5005976;28;94104;-70
2022/05/30 05:31:11;;;;;;;9.80;2.72;;;;;;;;;;5002790;28;93778;-71
2022/05/30 05:33:37;;;;;;;7.95;3.25;;;;;;;;;;5008396;28;96306;-71
2022/05/30 05:36:04;;;;;;;4.13;2.22;;;;;;;;;;5008871;28;92978;-71
2022/05/30 05:38:30;;;;;;;17.23;3.38;;;;;;;;;;5009537;28;93983;-70
2022/05/30 05:41:14;;;;;;;8.93;3.05;;;;;;;;;;5006447;28;94233;-70
2022/05/30 05:43:57;;;;;;;13.75;2.95;;;;;;;;;;5008381;28;92944;-70
2022/05/30 05:46:25;;;;;;;7.82;2.80;;;;;;;;;;5004249;28;95005;-71
2022/05/30 05:48:52;;;;;;;7.40;2.72;;;;;;;;;;5004056;28;95607;-71
2022/05/30 05:51:19;;;;;;;11.82;2.45;;;;;;;;;;5030679;27;92425;-70
2022/05/30 05:53:47;;;;;;;9.88;2.55;;;;;;;;;;5005023;28;94435;-71
2022/05/30 05:56:19;;;;;;;9.43;2.30;;;;;;;;;;5016067;28;92724;-71
2022/05/30 05:58:46;;;;;;;7.18;2.25;;;;;;;;;;5003442;28;94903;-71
2022/05/30 06:01:18;;;;;;;8.73;2.38;;;;;;;;;;5011780;28;94380;-71
2022/05/30 06:03:45;;;;;;;6.30;2.53;;;;;;;;;;5015034;28;92670;-71
2022/05/30 06:06:34;;;;;;;7.68;2.13;;;;;;;;;;5009566;28;92713;-73
2022/05/30 06:09:04;;;;;;;3.92;1.98;;;;;;;;;;5010469;28;94087;-70
2022/05/30 06:11:45;;;;;;;7.70;2.00;;;;;;;;;;5012492;28;92550;-71
2022/05/30 06:14:11;;;;;;;15.38;3.08;;;;;;;;;;5011178;28;92850;-71
2022/05/30 06:16:40;;;;;;;8.57;1.80;;;;;;;;;;5011282;28;93407;-71
2022/05/30 06:19:11;;;;;;;6.95;1.98;;;;;;;;;;5030131;28;92624;-70
2022/05/30 06:21:38;;;;;;;6.93;1.90;;;;;;;;;;5013691;28;94762;-70
2022/05/30 06:24:06;;;;;;;5.00;2.13;;;;;;;;;;5011244;28;95948;-71
2022/05/30 06:26:52;;;;;;;7.25;1.70;;;;;;;;;;5014503;28;95681;-72
2022/05/30 06:29:33;;;;;;;4.13;1.23;;;;;;;;;;5012264;28;92990;-71
2022/05/30 06:32:00;;;;;;;5.72;1.40;;;;;;;;;;5012039;28;92522;-71
2022/05/30 06:34:34;;;;;;;4.80;1.17;;;;;;;;;;5012321;28;93991;-71
2022/05/30 06:37:02;;;;;;;3.72;1.60;;;;;;;;;;4993895;28;94321;-71
2022/05/30 06:39:31;;;;;;;6.97;1.52;;;;;;;;;;4994553;28;92625;-71
2022/05/30 06:42:10;;;;;;;5.05;1.40;;;;;;;;;;4992836;28;94306;-70
2022/05/30 06:45:03;;;;;;;4.60;1.30;;;;;;;;;;4976442;28;92547;-70
2022/05/30 06:47:48;;;;;;;4.95;1.17;;;;;;;;;;4991026;28;93490;-70
2022/05/30 06:50:33;;;;;;;3.08;1.48;;;;;;;;;;4991092;28;95877;-71
2022/05/30 06:52:59;;;;;;;2.08;1.02;;;;;;;;;;4991855;28;93304;-71
2022/05/30 06:55:26;;;;;;;58.22;4.10;;;;;;;;;;4992276;28;94750;-71
2022/05/30 07:00:39;;;;;;;3.28;1.02;;;;;;;;;;4991935;28;92694;-71
2022/05/30 07:03:23;;;;;;;1.75;0.90;;;;;;;;;;4995709;28;92449;-71
2022/05/30 07:06:10;;;;;;;2.90;1.10;;;;;;;;;;4992975;28;92477;-71
2022/05/30 07:08:55;;;;;;;3.70;1.17;;;;;;;;;;4992680;28;92401;-71
2022/05/30 07:11:39;;;;;;;3.97;1.48;;;;;;;;;;4991374;28;95646;-70
2022/05/30 07:14:12;;;;;;;2.17;1.17;;;;;;;;;;4991393;28;92498;-70
2022/05/30 07:16:40;;;;;;;7.27;1.70;;;;;;;;;;4990561;28;95096;-70
2022/05/30 07:19:08;;;;;;;3.05;1.50;;;;;;;;;;4992548;28;94023;-70
2022/05/30 07:21:41;;;;;;;4.38;1.00;;;;;;;;;;4991826;28;92652;-71
2022/05/30 07:24:26;;;;;;;1.90;1.27;;;;;;;;;;4993355;28;92992;-70
2022/05/30 07:27:11;;;;;;;2.17;1.30;;;;;;;;;;4993338;28;92752;-71
2022/05/30 07:30:09;;;;;;;3.92;1.45;;;;;;;;;;4980662;28;92601;-70
2022/05/30 07:32:59;;;;;;;3.40;1.80;;;;;;;;;;4982095;28;92907;-70
2022/05/30 07:36:02;;;;;;;1.92;1.15;;;;;;;;;;4971191;28;91835;-70
2022/05/30 07:38:42;;;;;;;4.13;1.00;;;;;;;;;;4986181;28;94436;-70
2022/05/30 07:41:39;;;;;;;3.53;1.50;;;;;;;;;;4991642;28;93902;-69
2022/05/30 07:44:18;;;;;;;4.68;1.17;;;;;;;;;;4990147;28;94942;-69
2022/05/30 07:46:53;;;;;;;5.07;1.42;;;;;;;;;;4991777;28;96171;-69
2022/05/30 07:50:02;;;;;;;7.15;1.63;;;;;;;;;;4958670;28;92888;-69
2022/05/30 07:52:41;;;;;;;2.03;1.27;;;;;;;;;;4994012;28;92571;-69
2022/05/30 07:55:15;;;;;;;3.42;1.13;;;;;;;;;;4990901;28;96096;-69
2022/05/30 07:58:04;;;;;;;4.03;1.50;;;;;;;;;;4992669;28;92496;-70
2022/05/30 08:00:35;;;;;;;4.68;1.35;;;;;;;;;;4993632;28;95654;-69
2022/05/30 08:03:11;;;;;;;5.63;1.42;;;;;;;;;;4994665;28;93556;-70
2022/05/30 08:05:43;;;;;;;4.07;1.50;;;;;;;;;;4994577;28;92594;-69
2022/05/30 08:08:27;;;;;;;5.88;1.00;;;;;;;;;;4995247;28;92496;-70
2022/05/30 08:10:55;;;;;;;3.05;1.10;;;;;;;;;;4993038;28;95655;-70
2022/05/30 08:13:24;;;;;;;5.55;1.50;;;;;;;;;;4997564;28;92594;-70
2022/05/30 08:15:58;;;;;;;2.83;1.20;;;;;;;;;;4993917;28;95579;-70
2022/05/30 08:18:28;;;;;;;3.72;0.90;;;;;;;;;;4994319;28;92556;-70
2022/05/30 08:20:58;;;;;;;4.32;1.30;;;;;;;;;;4993989;28;94810;-69
2022/05/30 08:23:27;;;;;;;1.73;0.90;;;;;;;;;;4993388;28;95494;-70
2022/05/30 08:25:56;;;;;;;0.73;0.73;;;;;;;;;;4994442;28;92940;-69
2022/05/30 08:28:26;;;;;;;4.22;1.20;;;;;;;;;;4994607;28;95221;-70
2022/05/30 08:30:53;;;;;;;2.05;1.17;;;;;;;;;;4993828;28;95127;-70
2022/05/30 08:33:40;;;;;;;2.10;0.90;;;;;;;;;;4995425;28;92423;-70
2022/05/30 08:36:15;;;;;;;3.83;1.25;;;;;;;;;;4995784;28;94803;-69
2022/05/30 08:38:43;;;;;;;2.92;1.20;;;;;;;;;;4989939;28;93103;-70
2022/05/30 08:44:03;;;;;;;5.63;1.10;;;;;;;;;;4995076;28;93127;-70
2022/05/30 08:46:49;;;;;;;6.32;1.27;;;;;;;;;;4994147;28;93249;-70
2022/05/30 08:49:22;;;;;;;7.05;1.48;;;;;;;;;;4994461;28;95875;-70
2022/05/30 08:51:51;;;;;;;3.90;1.70;;;;;;;;;;4993436;28;95338;-70
2022/05/30 08:54:37;;;;;;;5.53;1.30;;;;;;;;;;4994463;28;92816;-70
2022/05/30 08:57:33;;;;;;;2.85;1.40;;;;;;;;;;4994099;28;94023;-70
2022/05/30 09:00:13;;;;;;;3.90;1.33;;;;;;;;;;4997053;28;94058;-70
2022/05/30 09:03:04;;;;;;;3.45;1.20;;;;;;;;;;4993881;28;94913;-70
2022/05/30 09:05:35;;;;;;;4.65;1.35;;;;;;;;;;5026444;28;93552;-70
2022/05/30 09:08:25;;;;;;;3.60;1.45;;;;;;;;;;4995817;28;92477;-70
2022/05/30 09:11:22;;;;;;;5.28;1.05;;;;;;;;;;4992928;28;93354;-70
2022/05/30 09:13:50;;;;;;;9.90;3.38;;;;;;;;;;4992975;28;95384;-70
2022/05/30 09:16:23;;;;;;;5.82;1.25;;;;;;;;;;4995310;28;92635;-70
2022/05/30 09:18:52;;;;;;;4.95;1.00;;;;;;;;;;4993121;28;95477;-70
2022/05/30 09:21:26;;;;;;;2.10;1.20;;;;;;;;;;4993838;28;94529;-70
2022/05/30 09:23:53;;;;;;;4.88;1.58;;;;;;;;;;4996811;28;93185;-70
2022/05/30 09:26:24;;;;;;;5.20;1.23;;;;;;;;;;4992739;28;95767;-70
2022/05/30 09:29:08;;;;;;;6.88;1.58;;;;;;;;;;4992189;28;95380;-70
2022/05/30 09:32:02;;;;;;;3.60;1.70;;;;;;;;;;4994575;28;94930;-70
2022/05/30 09:34:49;;;;;;;3.35;1.33;;;;;;;;;;4992661;28;93136;-70
2022/05/30 09:37:35;;;;;;;6.07;1.30;;;;;;;;;;4994226;28;92393;-70
2022/05/30 09:40:39;;;;;;;11.15;1.75;;;;;;;;;;4991790;28;95362;-70
2022/05/30 09:43:29;;;;;;;6.07;1.40;;;;;;;;;;4993220;28;95266;-70
2022/05/30 09:45:56;;;;;;;1.85;1.27;;;;;;;;;;4993502;28;92658;-70
2022/05/30 09:48:57;;;;;;;5.70;1.60;;;;;;;;;;4997591;28;92412;-71
2022/05/30 09:51:29;;;;;;;6.25;1.75;;;;;;;;;;4994411;28;92624;-71
2022/05/30 09:53:58;;;;;;;4.43;1.67;;;;;;;;;;4992710;28;94580;-71
2022/05/30 09:56:27;;;;;;;3.08;1.20;;;;;;;;;;4991023;28;98635;-70
2022/05/30 09:58:59;;;;;;;5.35;1.20;;;;;;;;;;4993312;28;92540;-70
2022/05/30 10:01:36;;;;;;;4.47;1.40;;;;;;;;;;4992165;28;92940;-70
2022/05/30 10:04:14;;;;;;;5.65;1.30;;;;;;;;;;5004913;28;96191;-71
2022/05/30 10:07:09;;;;;;;4.47;1.23;;;;;;;;;;5009417;28;92556;-73
2022/05/30 10:09:50;;;;;;;4.20;1.17;;;;;;;;;;5006048;28;94080;-70
2022/05/30 10:12:49;;;;;;;2.80;1.00;;;;;;;;;;5013037;28;92506;-70
2022/05/30 10:15:29;;;;;;;4.88;1.15;;;;;;;;;;4987404;28;92840;-68
2022/05/30 10:18:15;;;;;;;3.55;1.42;;;;;;;;;;4992876;28;95441;-69
2022/05/30 10:20:45;;;;;;;3.97;1.27;;;;;;;;;;5007355;28;92479;-69
2022/05/30 10:30:31;;;;;;;3.42;1.05;;;;;;;;;;5012989;28;92446;-69
2022/05/30 10:33:42;;;;;;;2.83;1.20;;;;;;;;;;5013175;28;93181;-70
2022/05/30 10:36:22;;;;;;;2.53;1.20;;;;;;;;;;5015033;28;95937;-69
2022/05/30 10:38:49;;;;;;;4.65;1.10;;;;;;;;;;4997069;28;94889;-69
2022/05/30 10:41:15;;;;;;;5.28;1.50;;;;;;;;;;4992395;28;95429;-69
2022/05/30 10:43:41;;;;;;;4.65;1.30;;;;;;;;;;4993716;28;91733;-70
2022/05/30 10:46:10;;;;;;;1.55;1.20;;;;;;;;;;4992658;28;94010;-68
2022/05/30 10:48:38;;;;;;;5.50;1.33;;;;;;;;;;4992046;28;94059;-69
2022/05/30 10:51:07;;;;;;;3.08;1.27;;;;;;;;;;4989930;28;94935;-68
2022/05/30 10:53:45;;;;;;;8.80;1.63;;;;;;;;;;4993477;28;95404;-68
2022/05/30 10:56:47;;;;;;;3.53;1.30;;;;;;;;;;4991924;28;94004;-69
2022/05/30 10:59:16;;;;;;;4.60;1.48;;;;;;;;;;5028061;28;93034;-69
2022/05/30 11:01:51;;;;;;;2.03;1.30;;;;;;;;;;4991873;28;95946;-69
2022/05/30 11:04:23;;;;;;;7.35;2.72;;;;;;;;;;4992875;28;92462;-70
2022/05/30 11:06:51;;;;;;;4.30;1.27;;;;;;;;;;4992342;28;95565;-70
2022/05/30 11:09:20;;;;;;;1.20;0.95;;;;;;;;;;5002361;28;95136;-70
2022/05/30 11:11:50;;;;;;;3.00;1.17;;;;;;;;;;5010783;28;92916;-69
2022/05/30 11:14:31;;;;;;;6.10;1.10;;;;;;;;;;5012138;28;93823;-69
2022/05/30 11:17:23;;;;;;;0.90;0.90;;;;;;;;;;5010480;28;95874;-70
2022/05/30 11:20:07;;;;;;;5.10;1.50;;;;;;;;;;5012303;28;92850;-70
2022/05/30 11:22:44;;;;;;;2.90;1.10;;;;;;;;;;5014038;28;95241;-69
2022/05/30 11:25:15;;;;;;;4.32;1.00;;;;;;;;;;5013399;28;93139;-69
2022/05/30 11:27:42;;;;;;;2.30;0.88;;;;;;;;;;5012806;28;94708;-69
2022/05/30 11:30:08;;;;;;;2.20;1.20;;;;;;;;;;5013142;28;94233;-69
2022/05/30 11:32:45;;;;;;;2.33;0.95;;;;;;;;;;5011846;28;93232;-69
2022/05/30 11:35:11;;;;;;;2.03;0.93;;;;;;;;;;5015737;28;94003;-69
2022/05/30 11:37:47;;;;;;;3.55;1.48;;;;;;;;;;5016612;28;93250;-69
2022/05/30 11:40:16;;;;;;;3.78;1.13;;;;;;;;;;5015952;28;93562;-69
2022/05/30 11:42:42;;;;;;;3.55;1.30;;;;;;;;;;5014697;28;94897;-69
2022/05/30 11:45:22;;;;;;;2.38;1.08;;;;;;;;;;5019209;28;93160;-69
2022/05/30 11:47:56;;;;;;;1.58;1.10;;;;;;;;;;5015629;28;93118;-69
2022/05/30 11:50:27;;;;;;;3.28;0.75;;;;;;;;;;5016203;28;92441;-69
2022/05/30 11:53:06;;;;;;;2.10;0.95;;;;;;;;;;5016628;28;92558;-69
2022/05/30 11:55:32;;;;;;;1.30;1.02;;;;;;;;;;5014926;28;93170;-69
2022/05/30 11:58:07;;;;;;;2.35;0.98;;;;;;;;;;5016348;28;93141;-69
2022/05/30 12:00:35;;;;;;;5.55;1.10;;;;;;;;;;5015734;28;91686;-69
2022/05/30 12:03:18;;;;;;;3.95;1.00;;;;;;;;;;5016407;28;93891;-69
2022/05/30 12:05:47;;;;;;;1.23;0.82;;;;;;;;;;5015708;28;92474;-70
2022/05/30 12:08:29;;;;;;;1.52;1.02;;;;;;;;;;5017193;28;95342;-70
2022/05/30 12:11:01;;;;;;;2.55;1.33;;;;;;;;;;5016030;28;94063;-70
2022/05/30 12:13:27;;;;;;;1.65;0.90;;;;;;;;;;5015764;28;92435;-70
2022/05/30 12:16:03;;;;;;;4.55;1.10;;;;;;;;;;5015427;28;93125;-71
2022/05/30 12:24:30;;;;;;;1.95;1.00;;;;;;;;;;4995444;28;93011;-70
2022/05/30 12:27:05;;;;;;;4.05;0.93;;;;;;;;;;5008331;28;93474;-70
2022/05/30 12:29:38;;;;;;;1.02;0.80;;;;;;;;;;5018070;28;92849;-70
2022/05/30 12:32:36;;;;;;;2.17;1.02;;;;;;;;;;5015785;28;94182;-71
2022/05/30 12:35:15;;;;;;;2.67;0.90;;;;;;;;;;5014236;28;94796;-69
2022/05/30 12:37:51;;;;;;;2.65;1.13;;;;;;;;;;5011438;28;96453;-68
2022/05/30 12:40:26;;;;;;;1.00;0.90;;;;;;;;;;4998585;28;94450;-68
2022/05/30 12:43:02;;;;;;;1.05;0.88;;;;;;;;;;4995034;28;92951;-69
2022/05/30 12:45:46;;;;;;;2.40;1.23;;;;;;;;;;4994899;28;93788;-68
2022/05/30 12:48:16;;;;;;;3.80;0.93;;;;;;;;;;4995360;28;94210;-68
2022/05/30 12:50:48;;;;;;;2.28;1.08;;;;;;;;;;4994545;28;93727;-68
2022/05/30 12:53:15;;;;;;;1.90;1.05;;;;;;;;;;4998913;28;92904;-68
2022/05/30 12:55:45;;;;;;;1.38;0.88;;;;;;;;;;4995478;28;92473;-68
2022/05/30 12:58:33;;;;;;;1.90;1.40;;;;;;;;;;4994524;28;94555;-70
2022/05/30 13:01:09;;;;;;;3.90;1.90;;;;;;;;;;4981597;28;95485;-69
2022/05/30 13:03:39;;;;;;;1.05;0.80;;;;;;;;;;4995277;28;92520;-69
2022/05/30 13:06:17;;;;;;;1.10;0.90;;;;;;;;;;4994706;28;93950;-69
2022/05/30 13:08:45;;;;;;;0.98;0.80;;;;;;;;;;4995046;28;93356;-69
2022/05/30 13:11:13;;;;;;;1.88;1.15;;;;;;;;;;4994635;28;92801;-69
2022/05/30 13:13:41;;;;;;;1.73;1.08;;;;;;;;;;4997756;28;93591;-69
2022/05/30 13:16:13;;;;;;;2.97;1.05;;;;;;;;;;4998050;28;95072;-70
2022/05/30 13:18:39;;;;;;;1.00;1.00;;;;;;;;;;4994545;28;93844;-69
2022/05/30 13:21:06;;;;;;;1.60;1.15;;;;;;;;;;4994988;28;94196;-69
2022/05/30 13:23:34;;;;;;;1.65;0.77;;;;;;;;;;4994753;28;92793;-69
2022/05/30 13:26:02;;;;;;;1.60;0.98;;;;;;;;;;5004001;28;94946;-69
2022/05/30 13:28:31;;;;;;;2.03;1.38;;;;;;;;;;5014710;28;94218;-69
2022/05/30 13:31:00;;;;;;;2.03;1.25;;;;;;;;;;5012356;28;92487;-69
2022/05/30 13:33:29;;;;;;;4.15;1.55;;;;;;;;;;5008966;28;92987;-71
2022/05/30 13:35:57;;;;;;;1.88;1.38;;;;;;;;;;4998205;28;94166;-71
2022/05/30 13:38:28;;;;;;;1.25;1.08;;;;;;;;;;5005651;28;92901;-70
2022/05/30 13:40:54;;;;;;;1.73;1.40;;;;;;;;;;5001777;28;95070;-70
2022/05/30 13:43:32;;;;;;;2.38;1.80;;;;;;;;;;5019019;28;91958;-70
2022/05/30 13:46:23;;;;;;;1.38;1.20;;;;;;;;;;5009661;28;92922;-70
2022/05/30 13:48:50;;;;;;;3.88;1.63;;;;;;;;;;5014687;28;94198;-70
2022/05/30 13:51:19;;;;;;;2.63;1.50;;;;;;;;;;5004945;28;97127;-70
2022/05/30 13:53:47;;;;;;;2.10;1.20;;;;;;;;;;5006098;28;96352;-70
2022/05/30 13:56:34;;;;;;;2.25;1.40;;;;;;;;;;5000582;28;94343;-70
2022/05/30 13:59:03;;;;;;;2.70;1.42;;;;;;;;;;5000451;27;92556;-70
2022/05/30 14:01:34;;;;;;;2.30;1.30;;;;;;;;;;4998550;28;93905;-71
2022/05/30 14:04:05;;;;;;;1.52;1.30;;;;;;;;;;4993413;28;92515;-71
2022/05/30 14:06:31;;;;;;;3.08;1.30;;;;;;;;;;4993611;28;94223;-71
2022/05/30 14:08:59;;;;;;;3.92;1.50;;;;;;;;;;4993273;28;93341;-70
2022/05/30 14:11:27;;;;;;;3.42;1.40;;;;;;;;;;5005530;28;94407;-70
2022/05/30 14:13:55;;;;;;;5.32;1.50;;;;;;;;;;5012463;28;92966;-70
2022/05/30 14:16:29;;;;;;;6.60;2.20;;;;;;;;;;5007932;28;96679;-70
2022/05/30 14:18:57;;;;;;;1.92;1.30;;;;;;;;;;5013842;28;92736;-70
2022/05/30 14:21:33;;;;;;;4.90;1.45;;;;;;;;;;5013419;28;92890;-70
2022/05/30 14:24:16;;;;;;;2.03;1.40;;;;;;;;;;4997617;28;92551;-70
2022/05/30 14:26:43;;;;;;;4.53;2.40;;;;;;;;;;4994418;28;93097;-70
2022/05/30 14:29:18;;;;;;;2.13;1.40;;;;;;;;;;5003800;28;94205;-70
2022/05/30 14:31:44;;;;;;;3.30;1.25;;;;;;;;;;4998177;28;94401;-70
2022/05/30 14:34:13;;;;;;;3.33;1.38;;;;;;;;;;4999915;28;93033;-70
2022/05/30 14:36:42;;;;;;;1.80;1.38;;;;;;;;;;4992253;28;93691;-70
2022/05/30 14:39:21;;;;;;;2.03;1.25;;;;;;;;;;4997840;28;92919;-71
2022/05/30 14:41:52;;;;;;;2.10;1.27;;;;;;;;;;5010451;28;94912;-70
2022/05/30 14:44:20;;;;;;;3.00;1.40;;;;;;;;;;5015009;28;93466;-70
2022/05/30 14:46:47;;;;;;;1.67;1.45;;;;;;;;;;5013303;28;93087;-70
2022/05/30 14:49:15;;;;;;;10.38;1.48;;;;;;;;;;5009245;28;94355;-70
2022/05/30 14:51:52;;;;;;;1.90;1.50;;;;;;;;;;4996046;28;93369;-70
2022/05/30 14:54:24;;;;;;;6.57;1.65;;;;;;;;;;5012265;28;93117;-70
2022/05/30 14:56:51;;;;;;;3.92;1.23;;;;;;;;;;5006502;28;94063;-70
2022/05/30 14:59:32;;;;;;;2.80;1.67;;;;;;;;;;4994198;28;91882;-70
2022/05/30 15:01:59;;;;;;;1.45;1.35;;;;;;;;;;4994400;28;93212;-70
2022/05/30 15:04:25;;;;;;;6.10;2.05;;;;;;;;;;4992240;28;94179;-70
2022/05/30 15:07:00;;;;;;;1.42;1.17;;;;;;;;;;4995160;28;94904;-71
2022/05/30 15:09:28;;;;;;;2.53;1.88;;;;;;;;;;4992058;28;93515;-70
2022/05/30 15:11:54;;;;;;;1.25;1.10;;;;;;;;;;4993013;28;92927;-70
2022/05/30 15:14:22;;;;;;;2.63;1.10;;;;;;;;;;4998674;28;93809;-70
2022/05/30 15:16:48;;;;;;;2.72;1.70;;;;;;;;;;5013247;28;94590;-70
2022/05/30 15:19:15;;;;;;;4.13;1.80;;;;;;;;;;5001483;28;92456;-70
2022/05/30 15:21:49;;;;;;;2.40;1.50;;;;;;;;;;4993326;28;92816;-70
2022/05/30 15:24:19;;;;;;;4.05;1.80;;;;;;;;;;4993960;28;92424;-70
2022/05/30 15:26:46;;;;;;;2.78;1.55;;;;;;;;;;5001821;28;92992;-70
2022/05/30 15:29:13;;;;;;;2.55;1.20;;;;;;;;;;5016293;28;93108;-69
2022/05/30 15:31:40;;;;;;;2.70;1.38;;;;;;;;;;5010771;28;94856;-69
2022/05/30 15:34:07;;;;;;;2.40;1.38;;;;;;;;;;5013428;28;95385;-70
2022/05/30 15:36:34;;;;;;;1.25;1.10;;;;;;;;;;5012721;28;94290;-70
2022/05/30 15:39:08;;;;;;;2.25;1.40;;;;;;;;;;5012048;28;92986;-70
2022/05/30 15:41:35;;;;;;;3.28;1.48;;;;;;;;;;5012973;28;93172;-69
2022/05/30 15:44:02;;;;;;;3.08;2.15;;;;;;;;;;5013025;28;94660;-69
2022/05/30 15:46:28;;;;;;;3.17;1.70;;;;;;;;;;5011915;28;92543;-69